Norfolk, Virginia
Traffic Map
Current Weather Conditions
Norfolk, Virginia
Broken Clouds
Broken Clouds
27°
Feels Like: 29°
Wind Chill: 27° Ceiling: 3200
Heat Index: 29° Visibility: 9mi
Dew Point: 22° Wind: 9mph
Humidity: 74% Direction: 20° (NNE)
Pressure: 29.86in Gusts: 0mph
Raw Report DataKORF 241859Z 02008KT 9SM SCT019 SCT027 BKN032 27/22 A2986 RMK AO2 T02670217
Traffic Incident Summary
Active as of:
Severity:
Category:
InformationThere was an issue retrieving the traffic information for this location. Please try a different location or try again shortly.
Advertisements
Track Severe Weather on mobile